Latest Weather Observations for Bairnsdale

IDV60801

Issued at 12:32 pm EST Thursday 28 July 2016 (issued every 30 minutes, with the page automatically refreshed every 10 minutes)

About weather observations | Map of weather stations | Latest weather observations for VIC | Other Formats
Station Details ID: 085279 Name: BAIRNSDALE AIRPORT Lat: -37.88 Lon: 147.57 Height: 49.4 m
Data from the previous 72 hours. | See also: Recent months at Bairnsdale
Date/Time
EST
Temp
°C
App
Temp
°C
Dew
Point
°C
Rel
Hum
%
Delta-T
°C
Wind Press
QNH
hPa
Press
MSL
hPa
Rain since
9am
mm
Dir  Spd
km/h
Gust
km/h
Spd
kts
Gust
kts
28/12:30pm 15.4 7.5 4.2 47 5.2 WNW 35 48 19 26 1020.0 1020.1 0.0
28/12:00pm 14.8 7.8 3.9 48 5.0 WNW 30 46 16 25 1020.3 1020.4 0.0
28/11:52am 15.2 8.2 4.3 48 5.1 WNW 30 48 16 26 1020.4 1020.5 0.0
28/11:30am 14.7 6.6 3.5 47 5.1 WNW 35 48 19 26 1020.5 1020.6 0.0
28/11:01am 15.1 7.7 3.9 47 5.2 WNW 32 50 17 27 1020.8 1020.9 0.0
28/11:00am 15.0 7.7 4.4 49 4.9 WNW 32 46 17 25 1020.8 1020.9 0.0
28/10:30am 14.3 6.7 4.0 50 4.7 WNW 33 48 18 26 1021.1 1021.2 0.0
28/10:29am 14.3 6.9 4.0 50 4.7 WNW 32 48 17 26 1021.1 1021.2 0.0
28/10:00am 13.2 8.5 5.1 58 3.8 NW 19 28 10 15 1021.3 1021.4 0.0
28/09:30am 12.4 8.4 5.1 61 3.4 NW 15 22 8 12 1021.2 1021.3 0.0
28/09:00am 10.0 5.5 4.2 67 2.6 WNW 17 20 9 11 1021.1 1021.2 0.0
28/08:30am 9.6 5.1 4.0 68 2.5 WNW 17 20 9 11 1021.2 1021.3 0.0
28/08:00am 9.1 5.3 3.9 70 2.3 WNW 13 19 7 10 1021.2 1021.3 0.0
28/07:30am 9.0 4.3 3.4 68 2.4 WNW 17 20 9 11 1020.7 1020.8 0.0
28/07:00am 9.1 5.2 3.5 68 2.4 WNW 13 17 7 9 1020.6 1020.7 0.0
28/06:30am 9.1 5.2 3.3 67 2.5 NW 13 15 7 8 1020.2 1020.3 0.0
28/06:00am 8.9 4.6 3.3 68 2.4 WNW 15 19 8 10 1020.0 1020.1 0.0
28/05:30am 8.2 3.5 3.1 70 2.2 NW 17 22 9 12 1019.7 1019.8 0.0
28/05:00am 8.0 3.6 2.9 70 2.1 NW 15 20 8 11 1019.6 1019.7 0.0
28/04:30am 7.3 1.9 2.6 72 2.0 NW 20 26 11 14 1019.4 1019.5 0.0
28/04:00am 5.7 1.5 1.8 76 1.6 WNW 13 17 7 9 1019.5 1019.6 0.0
28/03:30am 5.9 1.7 1.8 75 1.7 NW 13 17 7 9 1019.6 1019.7 0.0
28/03:00am 6.5 1.6 2.0 73 1.8 WNW 17 19 9 10 1019.5 1019.6 0.0
28/02:30am 6.1 1.9 1.6 73 1.8 NW 13 17 7 9 1019.5 1019.6 0.0
28/02:00am 6.1 1.2 2.0 75 1.7 WNW 17 20 9 11 1019.2 1019.3 0.0
28/01:30am 5.0 1.1 1.3 77 1.5 NW 11 13 6 7 1019.1 1019.2 0.0
28/01:00am 5.5 0.5 1.4 75 1.6 NW 17 19 9 10 1018.9 1019.0 0.0
28/12:30am 6.1 2.2 1.4 72 1.9 WNW 11 15 6 8 1019.1 1019.2 0.0
28/12:00am 5.7 1.4 1.1 72 1.8 WNW 13 17 7 9 1018.9 1019.0 0.0
 
Date/Time
EST
Temp
°C
App
Temp
°C
Dew
Point
°C
Rel
Hum
%
Delta-T
°C
Wind Press
QNH
hPa
Press
MSL
hPa
Rain since
9am
mm
Dir  Spd
km/h
Gust
km/h
Spd
kts
Gust
kts
27/11:30pm 6.3 1.7 1.4 71 2.0 WNW 15 19 8 10 1019.3 1019.4 0.0
27/11:00pm 5.7 1.0 1.2 73 1.8 WNW 15 17 8 9 1019.0 1019.1 0.0
27/10:30pm 6.0 1.7 1.2 71 1.9 NW 13 17 7 9 1019.2 1019.3 0.0
27/10:00pm 6.4 2.5 1.1 69 2.1 WNW 11 17 6 9 1019.5 1019.6 0.0
27/09:30pm 6.4 1.7 1.1 69 2.1 WNW 15 19 8 10 1019.5 1019.6 0.0
27/09:00pm 6.8 1.8 1.3 68 2.2 WNW 17 22 9 12 1019.4 1019.5 0.0
27/08:30pm 6.9 2.3 1.8 70 2.1 WNW 15 19 8 10 1019.3 1019.4 0.0
27/08:00pm 6.8 2.3 2.1 72 1.9 W 15 19 8 10 1019.4 1019.5 0.0
27/07:30pm 7.0 2.8 1.9 70 2.1 W 13 17 7 9 1018.8 1018.9 0.0
27/07:00pm 8.1 2.8 2.1 66 2.5 W 19 26 10 14 1017.8 1017.9 0.0
27/06:30pm 8.6 2.4 2.4 65 2.6 WSW 24 35 13 19 1017.6 1017.7 0.0
27/06:00pm 9.2 0.9 2.1 61 3.0 WSW 35 48 19 26 1017.0 1017.1 0.0
27/05:35pm 9.1 0.6 3.1 66 2.6 WSW 37 56 20 30 1016.4 1016.5 0.0
27/05:30pm 9.3 0.4 3.3 66 2.6 WSW 39 56 21 30 1016.3 1016.4 0.0
27/05:08pm 9.4 1.4 3.8 68 2.4 WSW 35 54 19 29 1016.0 1016.1 0.0
27/05:00pm 9.4 1.4 3.6 67 2.5 WSW 35 52 19 28 1015.8 1015.9 0.0
27/04:32pm 10.1 0.9 3.4 63 2.9 WSW 41 59 22 32 1015.5 1015.6 0.0
27/04:30pm 10.2 0.7 3.7 64 2.9 WSW 43 59 23 32 1015.4 1015.5 0.0
27/04:07pm 10.6 1.9 4.3 65 2.8 WSW 39 57 21 31 1014.8 1014.9 0.0
27/04:00pm 10.8 1.8 4.5 65 2.8 WSW 41 56 22 30 1014.7 1014.8 0.0
27/03:35pm 11.2 2.7 3.0 57 3.6 WSW 37 56 20 30 1014.4 1014.5 0.0
27/03:30pm 11.3 2.0 3.1 57 3.6 WSW 41 56 22 30 1014.3 1014.4 0.0
27/03:00pm 11.4 4.3 3.7 59 3.4 WSW 30 43 16 23 1014.0 1014.1 0.0
27/02:37pm 12.0 4.6 3.8 57 3.7 WSW 32 50 17 27 1013.6 1013.7 0.0
27/02:30pm 12.1 3.3 3.6 56 3.8 WSW 39 54 21 29 1013.5 1013.6 0.0
27/02:20pm 12.3 4.7 3.8 56 3.8 WSW 33 56 18 30 1013.3 1013.4 0.0
27/02:00pm 11.9 4.3 3.9 58 3.6 WSW 33 46 18 25 1013.0 1013.1 0.0
27/01:31pm 12.9 5.2 3.6 53 4.2 WSW 33 52 18 28 1012.5 1012.6 0.0
27/01:30pm 12.9 4.9 3.8 54 4.1 WSW 35 52 19 28 1012.5 1012.6 0.0
27/01:20pm 12.0 4.0 3.8 57 3.7 WSW 35 56 19 30 1012.6 1012.7 0.0
27/01:00pm 11.5 2.4 3.8 59 3.4 WSW 41 54 22 29 1012.8 1012.9 0.0
27/12:44pm 12.2 5.1 5.4 63 3.2 WSW 32 52 17 28 1012.4 1012.5 0.0
27/12:30pm 11.9 5.5 5.1 63 3.1 W 28 37 15 20 1012.4 1012.5 0.0
27/12:00pm 11.4 3.9 6.1 70 2.5 W 35 50 19 27 1012.5 1012.6 0.0
27/11:30am 12.0 5.6 6.9 71 2.4 W 30 41 16 22 1012.2 1012.3 0.0
27/11:00am 10.5 6.5 6.5 76 1.9 W 17 32 9 17 1012.2 1012.3 0.0
27/10:30am 11.6 5.5 4.8 63 3.1 W 26 39 14 21 1011.4 1011.4 0.0
27/10:00am 11.8 6.7 4.3 60 3.4 WNW 20 32 11 17 1010.6 1010.6 0.0
27/09:30am 12.1 7.0 4.3 59 3.5 WNW 20 30 11 16 1009.9 1009.9 0.0
27/09:00am 9.4 4.8 3.6 67 2.5 WNW 17 24 9 13 1009.4 1009.4 0.0
27/08:30am 8.4 5.3 3.8 73 2.0 WNW 9 17 5 9 1009.0 1009.0 0.0
27/08:00am 7.5 3.5 2.8 72 2.0 NW 13 17 7 9 1008.5 1008.5 0.0
27/07:30am 5.8 2.5 2.4 79 1.4 NNW 9 11 5 6 1008.0 1008.1 0.0
27/07:00am 6.8 3.3 1.5 69 2.1 WNW 9 13 5 7 1007.2 1007.3 0.0
27/06:30am 7.1 2.2 2.0 70 2.1 WNW 17 20 9 11 1006.7 1006.8 0.0
27/06:00am 6.5 2.6 1.4 70 2.1 WNW 11 15 6 8 1006.2 1006.3 0.0
27/05:30am 5.2 1.3 1.1 75 1.6 WNW 11 13 6 7 1005.4 1005.5 0.0
27/05:00am 3.3 1.2 -0.5 76 1.4 CALM 0 0 0 0 1005.2 1005.3 0.0
27/04:30am 5.1 2.0 0.1 70 1.9 NNE 6 9 3 5 1004.6 1004.7 0.0
27/04:00am 6.3 2.7 0.6 67 2.2 NNW 9 15 5 8 1004.5 1004.6 0.0
27/03:30am 6.8 2.8 0.5 64 2.5 NNE 11 15 6 8 1004.5 1004.6 0.0
27/03:00am 4.9 1.8 0.1 71 1.8 NE 6 7 3 4 1004.6 1004.7 0.0
27/02:30am 5.9 2.6 0.0 66 2.3 N 7 11 4 6 1004.9 1005.0 0.0
27/02:00am 8.3 3.5 0.5 58 3.1 NNW 15 28 8 15 1005.2 1005.3 0.0
27/01:30am 8.7 3.3 1.1 59 3.1 NNW 19 28 10 15 1005.3 1005.4 0.0
27/01:00am 9.7 3.3 1.1 55 3.6 NNW 24 35 13 19 1005.9 1006.0 0.0
27/12:30am 5.8 1.8 0.4 68 2.1 NE 11 15 6 8 1006.2 1006.3 0.0
27/12:00am 9.4 4.3 0.8 55 3.5 NW 17 32 9 17 1006.5 1006.6 0.0
 
Date/Time
EST
Temp
°C
App
Temp
°C
Dew
Point
°C
Rel
Hum
%
Delta-T
°C
Wind Press
QNH
hPa
Press
MSL
hPa
Rain since
9am
mm
Dir  Spd
km/h
Gust
km/h
Spd
kts
Gust
kts
26/11:30pm 8.6 3.2 1.1 59 3.1 NW 19 28 10 15 1006.6 1006.7 0.0
26/11:00pm 9.6 3.3 1.3 56 3.4 NW 24 37 13 20 1006.6 1006.7 0.0
26/10:30pm 9.8 2.7 1.5 56 3.5 NW 28 41 15 22 1007.0 1007.1 0.0
26/10:00pm 8.4 2.9 0.9 59 3.0 NNW 19 28 10 15 1007.1 1007.2 0.0
26/09:30pm 6.5 2.1 0.4 65 2.4 N 13 19 7 10 1007.3 1007.4 0.0
26/09:00pm 6.8 2.9 0.9 66 2.4 ENE 11 15 6 8 1007.5 1007.6 0.0
26/08:30pm 7.8 3.4 0.5 60 2.9 NNE 13 20 7 11 1007.7 1007.8 0.0
26/08:00pm 8.6 3.9 1.1 59 3.1 NNW 15 20 8 11 1007.8 1007.9 0.0
26/07:30pm 8.5 3.5 1.2 60 3.0 NNW 17 24 9 13 1008.2 1008.3 0.0
26/07:00pm 8.9 4.6 0.9 57 3.3 N 13 20 7 11 1008.5 1008.5 0.0
26/06:30pm 8.8 3.4 1.0 58 3.2 NNW 19 30 10 16 1008.6 1008.6 0.0
26/06:00pm 9.1 3.1 1.0 57 3.3 NNW 22 35 12 19 1008.3 1008.4 0.0
26/05:30pm 9.1 3.7 1.0 57 3.3 NNW 19 26 10 14 1008.6 1008.6 0.0
26/05:00pm 10.0 4.9 0.9 53 3.8 NNW 17 24 9 13 1008.5 1008.5 0.0
26/04:30pm 10.9 5.9 1.4 52 4.0 NW 17 26 9 14 1008.7 1008.7 0.0
26/04:00pm 11.2 5.2 1.2 50 4.2 NNW 22 33 12 18 1008.9 1008.9 0.0
26/03:30pm 10.9 4.5 1.2 51 4.1 NW 24 35 13 19 1009.1 1009.1 0.0
26/03:00pm 11.8 5.4 1.2 48 4.5 NNW 24 33 13 18 1009.1 1009.1 0.0
26/02:30pm 11.6 4.8 0.7 47 4.5 NW 26 35 14 19 1009.1 1009.1 0.0
26/02:00pm 12.3 5.3 -0.2 42 5.1 NW 26 43 14 23 1009.5 1009.5 0.0
26/01:30pm 11.2 4.0 0.6 48 4.4 NNW 28 37 15 20 1009.8 1009.8 0.0
26/01:00pm 11.5 4.2 0.0 45 4.7 NW 28 39 15 21 1010.2 1010.2 0.0
26/12:30pm 11.6 4.2 -0.5 43 4.9 NW 28 44 15 24 1010.8 1010.8 0.0
26/12:00pm 11.6 4.3 0.1 45 4.7 NNW 28 39 15 21 1011.1 1011.1 0.0
26/11:30am 12.0 5.1 0.1 44 4.9 NW 26 37 14 20 1011.2 1011.2 0.0
26/11:00am 11.2 4.3 0.0 46 4.6 NNW 26 37 14 20 1011.4 1011.4 0.0
26/10:30am 11.4 4.9 0.2 46 4.6 NNW 24 35 13 19 1011.6 1011.6 0.0
26/10:00am 11.0 4.5 0.4 48 4.4 NNW 24 33 13 18 1011.7 1011.7 0.0
26/09:30am 10.5 4.6 -0.6 46 4.4 NW 20 33 11 18 1011.5 1011.5 0.0
26/09:00am 8.7 3.5 -0.1 54 3.5 NW 17 22 9 12 1011.7 1011.7 0.0
26/08:30am 8.5 5.4 0.0 55 3.4 NNW 6 7 3 4 1011.6 1011.6 0.0
26/08:00am 6.5 2.0 -0.5 61 2.7 WNW 13 17 7 9 1011.0 1011.0 0.0
26/07:30am 5.7 1.1 -1.2 61 2.6 NW 13 17 7 9 1010.6 1010.6 0.0
26/07:00am 6.9 0.9 -1.7 54 3.2 WNW 20 28 11 15 1010.1 1010.1 0.0
26/06:30am 6.4 1.7 -1.7 56 3.0 WNW 13 20 7 11 1009.6 1009.6 0.0
26/06:00am 7.4 1.6 -1.5 53 3.4 WNW 19 24 10 13 1009.1 1009.1 0.0
26/05:30am 5.4 0.0 -1.5 61 2.5 WNW 17 22 9 12 1008.7 1008.7 0.0
26/05:00am 4.6 1.0 -2.3 61 2.5 NW 7 11 4 6 1008.3 1008.4 0.0
26/04:30am 5.2 1.7 -1.7 61 2.5 NNW 7 9 4 5 1008.0 1008.1 0.0
26/04:00am 5.3 1.8 -1.4 62 2.5 N 7 11 4 6 1007.6 1007.7 0.0
26/03:30am 5.8 1.2 -1.1 61 2.6 NW 13 19 7 10 1007.3 1007.4 0.0
26/03:00am 5.1 0.6 -0.5 67 2.1 NW 13 17 7 9 1007.2 1007.3 0.0
26/02:30am 5.4 0.2 0.0 68 2.1 WNW 17 22 9 12 1007.1 1007.2 0.0
26/02:00am 6.3 0.8 0.4 66 2.3 NW 19 24 10 13 1007.0 1007.1 0.0
26/01:30am 7.5 0.7 0.7 62 2.7 NW 26 33 14 18 1006.4 1006.5 0.0
26/01:00am 8.4 0.2 0.6 58 3.1 WNW 33 48 18 26 1006.2 1006.3 0.0
26/12:36am 8.7 -0.3 -0.1 54 3.5 W 37 57 20 31 1006.0 1006.1 0.0
26/12:30am 8.4 -0.4 1.1 60 3.0 W 37 54 20 29 1005.9 1006.0 0.0
26/12:00am 7.5 -2.4 3.0 73 1.9 W 44 63 24 34 1005.9 1006.0 0.0
 
Date/Time
EST
Temp
°C
App
Temp
°C
Dew
Point
°C
Rel
Hum
%
Delta-T
°C
Wind Press
QNH
hPa
Press
MSL
hPa
Rain since
9am
mm
Dir  Spd
km/h
Gust
km/h
Spd
kts
Gust
kts
25/11:30pm 7.4 -1.6 2.3 70 2.1 W 39 57 21 31 1005.7 1005.8 0.0
25/11:13pm 7.8 1.2 4.2 78 1.6 WSW 28 46 15 25 1005.4 1005.5 0.0
25/11:00pm 8.6 3.8 5.7 82 1.3 WSW 20 30 11 16 1005.2 1005.3 0.0
25/10:30pm 9.5 4.6 5.1 74 2.0 WSW 20 30 11 16 1004.7 1004.8 0.0
25/10:00pm 10.6 5.0 3.6 62 3.1 NW 22 30 12 16 1004.2 1004.3 0.0
25/09:30pm 10.8 3.1 3.4 60 3.2 NW 33 48 18 26 1003.3 1003.4 0.0
25/09:01pm 11.4 3.8 2.7 55 3.8 NW 32 50 17 27 1002.8 1002.9 0.0
25/09:00pm 11.2 3.6 2.8 56 3.7 NW 32 44 17 24 1002.8 1002.9 0.0
25/08:30pm 11.8 3.1 2.3 52 4.1 NNW 37 59 20 32 1002.1 1002.2 0.0
25/08:26pm 11.9 3.6 2.1 51 4.2 NNW 35 59 19 32 1001.8 1001.9 0.0
25/08:00pm 11.9 3.5 1.8 50 4.3 NNW 35 50 19 27 1002.1 1002.2 0.0
25/07:43pm 11.8 4.7 1.4 49 4.4 NNW 28 46 15 25 1002.8 1002.9 0.0
25/07:30pm 11.5 5.2 1.7 51 4.2 NNW 24 33 13 18 1002.9 1003.0 0.0
25/07:00pm 11.6 4.9 1.3 49 4.4 NNW 26 39 14 21 1002.7 1002.8 0.0
25/06:30pm 11.7 3.9 1.4 49 4.4 NW 32 50 17 27 1003.5 1003.6 0.0
25/06:05pm 11.3 3.8 1.3 50 4.2 NW 30 48 16 26 1002.6 1002.7 0.0
25/06:00pm 11.5 3.4 1.2 49 4.4 NNW 33 48 18 26 1002.5 1002.6 0.0
25/05:30pm 11.6 2.8 1.5 50 4.3 NW 37 50 20 27 1003.2 1003.3 0.0
25/05:00pm 12.2 4.6 2.6 52 4.2 NNW 32 50 17 27 1003.2 1003.3 0.0
25/04:54pm 12.4 5.2 2.8 52 4.2 NNW 30 50 16 27 1003.3 1003.4 0.0
25/04:30pm 13.2 5.0 2.7 49 4.6 NNW 35 50 19 27 1003.7 1003.8 0.0
25/04:03pm 12.9 6.0 2.5 49 4.6 NW 28 52 15 28 1003.6 1003.7 0.0
25/04:00pm 12.7 5.9 3.1 52 4.3 NW 28 41 15 22 1003.9 1004.0 0.0
25/03:43pm 13.8 6.1 2.4 46 5.0 NW 32 52 17 28 1004.0 1004.1 0.0
25/03:30pm 13.9 6.6 2.5 46 5.0 NNW 30 46 16 25 1003.9 1004.0 0.0
25/03:21pm 14.0 7.1 2.3 45 5.2 NNW 28 46 15 25 1003.9 1004.0 0.0
25/03:00pm 14.3 6.6 3.2 47 5.0 NNW 33 48 18 26 1004.3 1004.4 0.0
25/02:30pm 14.4 6.2 2.6 45 5.3 NNW 35 46 19 25 1004.6 1004.7 0.0
25/02:00pm 14.6 6.8 3.1 46 5.2 NNW 33 46 18 25 1004.9 1005.0 0.0
25/01:30pm 14.8 7.7 3.3 46 5.2 NNW 30 39 16 21 1005.3 1005.4 0.0
25/01:00pm 14.4 8.1 3.8 49 4.9 NNW 26 35 14 19 1005.7 1005.8 0.0

Other Formats:

Comma delimited format used in spreadsheet applications
http://www.bom.gov.au/fwo/IDV60801/IDV60801.94912.axf

JavaScript Object Notation format (JSON) in row-major order
http://www.bom.gov.au/fwo/IDV60801/IDV60801.94912.json